sensor_id;sensor_type;location;lat;lon;timestamp;temperature;humidity
16267;DHT22;8241;48.786;9.250;2022-08-19T00:02:09;22.40;99.90
16267;DHT22;8241;48.786;9.250;2022-08-19T00:04:50;22.40;99.90
16267;DHT22;8241;48.786;9.250;2022-08-19T00:07:28;22.50;99.90
16267;DHT22;8241;48.786;9.250;2022-08-19T00:09:55;22.50;99.90
16267;DHT22;8241;48.786;9.250;2022-08-19T00:12:23;22.50;99.90
16267;DHT22;8241;48.786;9.250;2022-08-19T00:14:51;22.60;99.90
16267;DHT22;8241;48.786;9.250;2022-08-19T00:17:21;22.50;99.90
16267;DHT22;8241;48.786;9.250;2022-08-19T00:19:48;22.40;99.90
16267;DHT22;8241;48.786;9.250;2022-08-19T00:28:17;22.30;99.90
16267;DHT22;8241;48.786;9.250;2022-08-19T00:30:44;22.40;99.90
16267;DHT22;8241;48.786;9.250;2022-08-19T00:33:20;22.40;99.90
16267;DHT22;8241;48.786;9.250;2022-08-19T00:35:47;22.40;99.90
16267;DHT22;8241;48.786;9.250;2022-08-19T00:38:14;22.30;99.90
16267;DHT22;8241;48.786;9.250;2022-08-19T00:40:43;22.20;99.90
16267;DHT22;8241;48.786;9.250;2022-08-19T00:43:12;22.20;99.90
16267;DHT22;8241;48.786;9.250;2022-08-19T00:46:00;22.30;99.90
16267;DHT22;8241;48.786;9.250;2022-08-19T00:48:28;22.20;99.90
16267;DHT22;8241;48.786;9.250;2022-08-19T00:50:55;22.30;99.90
16267;DHT22;8241;48.786;9.250;2022-08-19T00:57:14;22.20;99.90
16267;DHT22;8241;48.786;9.250;2022-08-19T00:59:44;22.20;99.90
16267;DHT22;8241;48.786;9.250;2022-08-19T01:02:14;22.20;99.90
16267;DHT22;8241;48.786;9.250;2022-08-19T01:05:13;22.30;99.90
16267;DHT22;8241;48.786;9.250;2022-08-19T01:07:41;22.40;99.90
16267;DHT22;8241;48.786;9.250;2022-08-19T01:10:11;22.50;99.90
16267;DHT22;8241;48.786;9.250;2022-08-19T01:12:46;22.30;99.90
16267;DHT22;8241;48.786;9.250;2022-08-19T01:15:22;22.30;99.90
16267;DHT22;8241;48.786;9.250;2022-08-19T01:17:59;22.20;99.90
16267;DHT22;8241;48.786;9.250;2022-08-19T01:20:27;22.20;99.90
16267;DHT22;8241;48.786;9.250;2022-08-19T01:22:57;22.30;99.90
16267;DHT22;8241;48.786;9.250;2022-08-19T01:25:41;22.30;99.90
16267;DHT22;8241;48.786;9.250;2022-08-19T01:28:14;22.20;99.90
16267;DHT22;8241;48.786;9.250;2022-08-19T01:30:41;22.20;99.90
16267;DHT22;8241;48.786;9.250;2022-08-19T01:33:09;22.30;99.90
16267;DHT22;8241;48.786;9.250;2022-08-19T01:35:47;22.30;99.90
16267;DHT22;8241;48.786;9.250;2022-08-19T01:38:23;22.30;99.90
16267;DHT22;8241;48.786;9.250;2022-08-19T01:40:50;22.20;99.90
16267;DHT22;8241;48.786;9.250;2022-08-19T01:43:17;22.30;99.90
16267;DHT22;8241;48.786;9.250;2022-08-19T01:45:45;22.30;99.90
16267;DHT22;8241;48.786;9.250;2022-08-19T01:48:17;22.20;99.90
16267;DHT22;8241;48.786;9.250;2022-08-19T01:50:44;22.20;99.90
16267;DHT22;8241;48.786;9.250;2022-08-19T01:53:11;22.00;99.90
16267;DHT22;8241;48.786;9.250;2022-08-19T01:55:42;21.90;99.90
16267;DHT22;8241;48.786;9.250;2022-08-19T01:58:12;21.90;99.90
16267;DHT22;8241;48.786;9.250;2022-08-19T02:00:51;21.90;99.90
16267;DHT22;8241;48.786;9.250;2022-08-19T02:03:18;21.90;99.90
16267;DHT22;8241;48.786;9.250;2022-08-19T02:05:45;21.90;99.90
16267;DHT22;8241;48.786;9.250;2022-08-19T02:08:12;21.80;99.90
16267;DHT22;8241;48.786;9.250;2022-08-19T02:10:42;21.80;99.90
16267;DHT22;8241;48.786;9.250;2022-08-19T02:13:10;21.80;99.90
16267;DHT22;8241;48.786;9.250;2022-08-19T02:15:37;21.80;99.90
16267;DHT22;8241;48.786;9.250;2022-08-19T02:18:05;21.80;99.90
16267;DHT22;8241;48.786;9.250;2022-08-19T02:20:32;21.80;99.90
16267;DHT22;8241;48.786;9.250;2022-08-19T02:22:59;21.90;99.90
16267;DHT22;8241;48.786;9.250;2022-08-19T02:25:33;21.90;99.90
16267;DHT22;8241;48.786;9.250;2022-08-19T02:28:02;21.90;99.90
16267;DHT22;8241;48.786;9.250;2022-08-19T02:30:29;21.70;99.90
16267;DHT22;8241;48.786;9.250;2022-08-19T02:32:56;21.60;99.90
16267;DHT22;8241;48.786;9.250;2022-08-19T02:35:23;21.60;99.90
16267;DHT22;8241;48.786;9.250;2022-08-19T02:38:08;21.70;99.90
16267;DHT22;8241;48.786;9.250;2022-08-19T02:40:54;21.80;99.90
16267;DHT22;8241;48.786;9.250;2022-08-19T02:43:24;21.90;99.90
16267;DHT22;8241;48.786;9.250;2022-08-19T02:45:52;22.00;99.90
16267;DHT22;8241;48.786;9.250;2022-08-19T02:48:21;21.90;99.90
16267;DHT22;8241;48.786;9.250;2022-08-19T02:50:50;21.80;99.90
16267;DHT22;8241;48.786;9.250;2022-08-19T02:53:36;21.60;99.90
16267;DHT22;8241;48.786;9.250;2022-08-19T02:56:06;21.60;99.90
16267;DHT22;8241;48.786;9.250;2022-08-19T02:58:34;21.60;99.90
16267;DHT22;8241;48.786;9.250;2022-08-19T03:01:01;21.60;99.90
16267;DHT22;8241;48.786;9.250;2022-08-19T03:03:28;21.70;99.90
16267;DHT22;8241;48.786;9.250;2022-08-19T03:06:07;21.50;99.90
16267;DHT22;8241;48.786;9.250;2022-08-19T03:08:34;21.40;99.90
16267;DHT22;8241;48.786;9.250;2022-08-19T03:11:02;21.40;99.90
16267;DHT22;8241;48.786;9.250;2022-08-19T03:13:29;21.50;99.90
16267;DHT22;8241;48.786;9.250;2022-08-19T03:15:57;21.50;99.90
16267;DHT22;8241;48.786;9.250;2022-08-19T03:18:24;21.40;99.90
16267;DHT22;8241;48.786;9.250;2022-08-19T03:20:52;21.40;99.90
16267;DHT22;8241;48.786;9.250;2022-08-19T03:23:20;21.30;99.90
16267;DHT22;8241;48.786;9.250;2022-08-19T03:25:48;21.30;99.90
16267;DHT22;8241;48.786;9.250;2022-08-19T03:28:16;21.30;99.90
16267;DHT22;8241;48.786;9.250;2022-08-19T03:30:57;21.30;99.90
16267;DHT22;8241;48.786;9.250;2022-08-19T03:33:25;21.30;99.90
16267;DHT22;8241;48.786;9.250;2022-08-19T03:36:04;21.20;99.90
16267;DHT22;8241;48.786;9.250;2022-08-19T03:38:32;21.20;99.90
16267;DHT22;8241;48.786;9.250;2022-08-19T03:41:31;21.10;99.90
16267;DHT22;8241;48.786;9.250;2022-08-19T03:44:19;21.20;99.90
16267;DHT22;8241;48.786;9.250;2022-08-19T03:47:07;21.20;99.90
16267;DHT22;8241;48.786;9.250;2022-08-19T03:49:34;21.10;99.90
16267;DHT22;8241;48.786;9.250;2022-08-19T03:52:02;21.10;99.90
16267;DHT22;8241;48.786;9.250;2022-08-19T03:54:32;21.10;99.90
16267;DHT22;8241;48.786;9.250;2022-08-19T03:57:00;21.10;99.90
16267;DHT22;8241;48.786;9.250;2022-08-19T03:59:28;21.10;99.90
16267;DHT22;8241;48.786;9.250;2022-08-19T04:02:01;21.10;99.90
16267;DHT22;8241;48.786;9.250;2022-08-19T04:04:29;21.20;99.90
16267;DHT22;8241;48.786;9.250;2022-08-19T04:06:57;21.20;99.90
16267;DHT22;8241;48.786;9.250;2022-08-19T04:09:25;21.20;99.90
16267;DHT22;8241;48.786;9.250;2022-08-19T04:11:53;21.10;99.90
16267;DHT22;8241;48.786;9.250;2022-08-19T04:14:23;21.10;99.90
16267;DHT22;8241;48.786;9.250;2022-08-19T04:16:51;21.10;99.90
16267;DHT22;8241;48.786;9.250;2022-08-19T04:19:19;21.20;99.90
16267;DHT22;8241;48.786;9.250;2022-08-19T04:21:49;21.10;99.90
16267;DHT22;8241;48.786;9.250;2022-08-19T04:24:17;21.10;99.90
16267;DHT22;8241;48.786;9.250;2022-08-19T04:26:44;21.10;99.90
16267;DHT22;8241;48.786;9.250;2022-08-19T04:29:13;21.20;99.90
16267;DHT22;8241;48.786;9.250;2022-08-19T04:35:08;21.20;99.90
16267;DHT22;8241;48.786;9.250;2022-08-19T04:37:36;21.10;99.90
16267;DHT22;8241;48.786;9.250;2022-08-19T04:40:22;21.00;99.90
16267;DHT22;8241;48.786;9.250;2022-08-19T04:43:06;20.90;99.90
16267;DHT22;8241;48.786;9.250;2022-08-19T04:45:36;21.00;99.90
16267;DHT22;8241;48.786;9.250;2022-08-19T04:48:03;20.90;99.90
16267;DHT22;8241;48.786;9.250;2022-08-19T04:50:31;20.80;99.90
16267;DHT22;8241;48.786;9.250;2022-08-19T04:52:59;20.80;99.90
16267;DHT22;8241;48.786;9.250;2022-08-19T04:55:26;20.80;99.90
16267;DHT22;8241;48.786;9.250;2022-08-19T04:57:53;20.70;99.90
16267;DHT22;8241;48.786;9.250;2022-08-19T05:00:51;20.80;99.90
16267;DHT22;8241;48.786;9.250;2022-08-19T05:03:19;20.80;99.90
16267;DHT22;8241;48.786;9.250;2022-08-19T05:05:47;20.80;99.90
16267;DHT22;8241;48.786;9.250;2022-08-19T05:08:19;20.90;99.90
16267;DHT22;8241;48.786;9.250;2022-08-19T05:10:47;20.80;99.90
16267;DHT22;8241;48.786;9.250;2022-08-19T05:13:48;20.90;99.90
16267;DHT22;8241;48.786;9.250;2022-08-19T05:16:17;20.80;99.90
16267;DHT22;8241;48.786;9.250;2022-08-19T05:18:54;20.70;99.90
16267;DHT22;8241;48.786;9.250;2022-08-19T05:21:40;20.80;99.90
16267;DHT22;8241;48.786;9.250;2022-08-19T05:24:32;20.90;99.90
16267;DHT22;8241;48.786;9.250;2022-08-19T05:27:00;21.00;99.90
16267;DHT22;8241;48.786;9.250;2022-08-19T05:29:29;21.00;99.90
16267;DHT22;8241;48.786;9.250;2022-08-19T05:32:07;20.80;99.90
16267;DHT22;8241;48.786;9.250;2022-08-19T05:34:36;20.90;99.90
16267;DHT22;8241;48.786;9.250;2022-08-19T05:37:04;20.80;99.90
16267;DHT22;8241;48.786;9.250;2022-08-19T05:39:35;20.80;99.90
16267;DHT22;8241;48.786;9.250;2022-08-19T05:42:08;20.80;99.90
16267;DHT22;8241;48.786;9.250;2022-08-19T05:44:37;20.90;99.90
16267;DHT22;8241;48.786;9.250;2022-08-19T05:47:06;20.90;99.90
16267;DHT22;8241;48.786;9.250;2022-08-19T05:49:34;20.90;99.90
16267;DHT22;8241;48.786;9.250;2022-08-19T05:52:15;20.90;99.90
16267;DHT22;8241;48.786;9.250;2022-08-19T05:54:43;20.90;99.90
16267;DHT22;8241;48.786;9.250;2022-08-19T05:57:13;20.90;99.90
16267;DHT22;8241;48.786;9.250;2022-08-19T05:59:42;21.00;99.90
16267;DHT22;8241;48.786;9.250;2022-08-19T06:02:11;20.90;99.90
16267;DHT22;8241;48.786;9.250;2022-08-19T06:04:48;21.00;99.90
16267;DHT22;8241;48.786;9.250;2022-08-19T06:07:15;21.00;99.90
16267;DHT22;8241;48.786;9.250;2022-08-19T06:09:43;21.00;99.90
16267;DHT22;8241;48.786;9.250;2022-08-19T06:12:10;21.00;99.90
16267;DHT22;8241;48.786;9.250;2022-08-19T06:14:37;21.10;99.90
16267;DHT22;8241;48.786;9.250;2022-08-19T06:17:05;20.80;99.90
16267;DHT22;8241;48.786;9.250;2022-08-19T06:19:35;20.90;99.90
16267;DHT22;8241;48.786;9.250;2022-08-19T06:22:04;20.90;99.90
16267;DHT22;8241;48.786;9.250;2022-08-19T06:24:32;20.70;99.90
16267;DHT22;8241;48.786;9.250;2022-08-19T06:27:03;20.60;99.90
16267;DHT22;8241;48.786;9.250;2022-08-19T06:29:31;20.60;99.90
16267;DHT22;8241;48.786;9.250;2022-08-19T06:32:17;20.60;99.90
16267;DHT22;8241;48.786;9.250;2022-08-19T06:34:58;20.70;99.90
16267;DHT22;8241;48.786;9.250;2022-08-19T06:37:25;20.70;99.90
16267;DHT22;8241;48.786;9.250;2022-08-19T06:39:52;20.80;99.90
16267;DHT22;8241;48.786;9.250;2022-08-19T06:42:20;20.90;99.90
16267;DHT22;8241;48.786;9.250;2022-08-19T06:44:48;20.90;99.90
16267;DHT22;8241;48.786;9.250;2022-08-19T06:47:18;20.80;99.90
16267;DHT22;8241;48.786;9.250;2022-08-19T06:49:46;20.70;99.90
16267;DHT22;8241;48.786;9.250;2022-08-19T06:52:14;20.80;99.90
16267;DHT22;8241;48.786;9.250;2022-08-19T06:54:42;20.90;99.90
16267;DHT22;8241;48.786;9.250;2022-08-19T06:57:09;20.90;99.90
16267;DHT22;8241;48.786;9.250;2022-08-19T06:59:41;21.00;99.90
16267;DHT22;8241;48.786;9.250;2022-08-19T07:02:08;20.90;99.90
16267;DHT22;8241;48.786;9.250;2022-08-19T07:04:55;20.90;99.90
16267;DHT22;8241;48.786;9.250;2022-08-19T07:07:23;20.70;99.90
16267;DHT22;8241;48.786;9.250;2022-08-19T07:09:51;20.60;99.90
16267;DHT22;8241;48.786;9.250;2022-08-19T07:12:19;20.60;99.90
16267;DHT22;8241;48.786;9.250;2022-08-19T07:14:57;20.60;99.90
16267;DHT22;8241;48.786;9.250;2022-08-19T07:17:25;20.70;99.90
16267;DHT22;8241;48.786;9.250;2022-08-19T07:19:53;20.80;99.90
16267;DHT22;8241;48.786;9.250;2022-08-19T07:22:26;20.70;99.90
16267;DHT22;8241;48.786;9.250;2022-08-19T07:24:53;20.80;99.90
16267;DHT22;8241;48.786;9.250;2022-08-19T07:27:20;20.80;99.90
16267;DHT22;8241;48.786;9.250;2022-08-19T07:29:47;20.80;99.90
16267;DHT22;8241;48.786;9.250;2022-08-19T07:32:16;20.80;99.90
16267;DHT22;8241;48.786;9.250;2022-08-19T07:34:43;21.00;99.90
16267;DHT22;8241;48.786;9.250;2022-08-19T07:37:10;20.90;99.90
16267;DHT22;8241;48.786;9.250;2022-08-19T07:39:38;20.80;99.90
16267;DHT22;8241;48.786;9.250;2022-08-19T07:42:06;20.80;99.90
16267;DHT22;8241;48.786;9.250;2022-08-19T07:44:34;20.80;99.90
16267;DHT22;8241;48.786;9.250;2022-08-19T07:47:05;20.90;99.90
16267;DHT22;8241;48.786;9.250;2022-08-19T07:49:33;21.00;99.90
16267;DHT22;8241;48.786;9.250;2022-08-19T07:52:03;20.90;99.90
16267;DHT22;8241;48.786;9.250;2022-08-19T07:54:32;20.70;99.90
16267;DHT22;8241;48.786;9.250;2022-08-19T07:57:01;20.70;99.90
16267;DHT22;8241;48.786;9.250;2022-08-19T07:59:29;20.70;99.90
16267;DHT22;8241;48.786;9.250;2022-08-19T08:02:21;20.60;99.90
16267;DHT22;8241;48.786;9.250;2022-08-19T08:04:49;20.70;99.90
16267;DHT22;8241;48.786;9.250;2022-08-19T08:07:36;20.80;99.90
16267;DHT22;8241;48.786;9.250;2022-08-19T08:10:20;20.80;99.90
16267;DHT22;8241;48.786;9.250;2022-08-19T08:12:48;20.80;99.90
16267;DHT22;8241;48.786;9.250;2022-08-19T08:15:15;20.80;99.90
16267;DHT22;8241;48.786;9.250;2022-08-19T08:17:44;20.90;99.90
16267;DHT22;8241;48.786;9.250;2022-08-19T08:20:14;20.90;99.90
16267;DHT22;8241;48.786;9.250;2022-08-19T08:22:43;20.80;99.90
16267;DHT22;8241;48.786;9.250;2022-08-19T08:25:28;20.60;99.90
16267;DHT22;8241;48.786;9.250;2022-08-19T08:27:56;20.70;99.90
16267;DHT22;8241;48.786;9.250;2022-08-19T08:30:30;20.70;99.90
16267;DHT22;8241;48.786;9.250;2022-08-19T08:32:58;20.80;99.90
16267;DHT22;8241;48.786;9.250;2022-08-19T08:38:19;20.50;99.90
16267;DHT22;8241;48.786;9.250;2022-08-19T08:40:48;20.50;99.90
16267;DHT22;8241;48.786;9.250;2022-08-19T08:43:23;20.70;99.90
16267;DHT22;8241;48.786;9.250;2022-08-19T08:45:56;20.80;99.90
16267;DHT22;8241;48.786;9.250;2022-08-19T08:51:37;21.10;99.90
16267;DHT22;8241;48.786;9.250;2022-08-19T08:54:10;21.20;99.90
16267;DHT22;8241;48.786;9.250;2022-08-19T08:56:38;21.00;99.90
16267;DHT22;8241;48.786;9.250;2022-08-19T08:59:07;21.20;99.90
16267;DHT22;8241;48.786;9.250;2022-08-19T09:01:36;21.20;99.90
16267;DHT22;8241;48.786;9.250;2022-08-19T09:04:04;21.30;99.90
16267;DHT22;8241;48.786;9.250;2022-08-19T09:06:38;21.40;99.90
16267;DHT22;8241;48.786;9.250;2022-08-19T09:09:17;21.40;99.90
16267;DHT22;8241;48.786;9.250;2022-08-19T09:15:04;21.80;99.90
16267;DHT22;8241;48.786;9.250;2022-08-19T09:17:33;21.60;99.90
16267;DHT22;8241;48.786;9.250;2022-08-19T09:20:18;21.60;99.90
16267;DHT22;8241;48.786;9.250;2022-08-19T09:23:07;21.50;99.90
16267;DHT22;8241;48.786;9.250;2022-08-19T09:25:36;21.40;99.90
16267;DHT22;8241;48.786;9.250;2022-08-19T09:28:06;21.40;99.90
16267;DHT22;8241;48.786;9.250;2022-08-19T09:30:41;21.30;99.90
16267;DHT22;8241;48.786;9.250;2022-08-19T09:33:08;21.30;99.90
16267;DHT22;8241;48.786;9.250;2022-08-19T09:35:35;21.40;99.90
16267;DHT22;8241;48.786;9.250;2022-08-19T09:41:13;21.50;99.90
16267;DHT22;8241;48.786;9.250;2022-08-19T09:43:41;21.50;99.90
16267;DHT22;8241;48.786;9.250;2022-08-19T09:46:09;21.60;99.90
16267;DHT22;8241;48.786;9.250;2022-08-19T09:48:36;21.60;99.90
16267;DHT22;8241;48.786;9.250;2022-08-19T09:51:06;21.70;99.90
16267;DHT22;8241;48.786;9.250;2022-08-19T09:53:34;21.70;99.90
16267;DHT22;8241;48.786;9.250;2022-08-19T09:56:01;21.60;99.90
16267;DHT22;8241;48.786;9.250;2022-08-19T09:58:34;21.60;99.90
16267;DHT22;8241;48.786;9.250;2022-08-19T10:01:02;21.40;99.90
16267;DHT22;8241;48.786;9.250;2022-08-19T10:03:31;21.40;99.90
16267;DHT22;8241;48.786;9.250;2022-08-19T10:06:00;21.40;99.90
16267;DHT22;8241;48.786;9.250;2022-08-19T10:08:30;21.30;99.90
16267;DHT22;8241;48.786;9.250;2022-08-19T10:10:59;21.30;99.90
16267;DHT22;8241;48.786;9.250;2022-08-19T10:13:47;21.30;99.90
16267;DHT22;8241;48.786;9.250;2022-08-19T10:16:16;21.30;99.90
16267;DHT22;8241;48.786;9.250;2022-08-19T10:18:43;21.10;99.90
16267;DHT22;8241;48.786;9.250;2022-08-19T10:21:13;20.80;99.90
16267;DHT22;8241;48.786;9.250;2022-08-19T10:23:52;20.50;99.90
16267;DHT22;8241;48.786;9.250;2022-08-19T10:26:22;20.30;99.90
16267;DHT22;8241;48.786;9.250;2022-08-19T10:29:06;20.20;99.90
16267;DHT22;8241;48.786;9.250;2022-08-19T10:31:34;20.20;99.90
16267;DHT22;8241;48.786;9.250;2022-08-19T10:34:01;20.30;99.90
16267;DHT22;8241;48.786;9.250;2022-08-19T10:36:32;20.50;99.90
16267;DHT22;8241;48.786;9.250;2022-08-19T10:39:03;20.60;99.90
16267;DHT22;8241;48.786;9.250;2022-08-19T10:41:32;21.10;99.90
16267;DHT22;8241;48.786;9.250;2022-08-19T10:47:13;21.40;99.90
16267;DHT22;8241;48.786;9.250;2022-08-19T10:49:40;21.70;99.90
16267;DHT22;8241;48.786;9.250;2022-08-19T10:52:21;21.80;99.90
16267;DHT22;8241;48.786;9.250;2022-08-19T10:55:00;21.50;99.90
16267;DHT22;8241;48.786;9.250;2022-08-19T10:57:45;21.60;99.90
16267;DHT22;8241;48.786;9.250;2022-08-19T11:00:20;21.30;99.90
16267;DHT22;8241;48.786;9.250;2022-08-19T11:02:50;21.10;99.90
16267;DHT22;8241;48.786;9.250;2022-08-19T11:05:17;21.10;99.90
16267;DHT22;8241;48.786;9.250;2022-08-19T11:08:00;21.20;99.90
16267;DHT22;8241;48.786;9.250;2022-08-19T11:10:26;21.20;99.90
16267;DHT22;8241;48.786;9.250;2022-08-19T11:12:53;21.30;99.90
16267;DHT22;8241;48.786;9.250;2022-08-19T11:15:21;21.20;99.90
16267;DHT22;8241;48.786;9.250;2022-08-19T11:17:51;21.30;99.90
16267;DHT22;8241;48.786;9.250;2022-08-19T11:20:21;21.40;99.90
16267;DHT22;8241;48.786;9.250;2022-08-19T11:22:51;21.40;99.90
16267;DHT22;8241;48.786;9.250;2022-08-19T11:25:19;21.40;99.90
16267;DHT22;8241;48.786;9.250;2022-08-19T11:27:47;21.30;99.90
16267;DHT22;8241;48.786;9.250;2022-08-19T11:30:16;21.20;99.90
16267;DHT22;8241;48.786;9.250;2022-08-19T11:32:43;21.20;99.90
16267;DHT22;8241;48.786;9.250;2022-08-19T11:35:12;21.20;99.90
16267;DHT22;8241;48.786;9.250;2022-08-19T11:37:39;21.10;99.90
16267;DHT22;8241;48.786;9.250;2022-08-19T11:40:08;21.10;99.90
16267;DHT22;8241;48.786;9.250;2022-08-19T11:43:12;21.20;99.90
16267;DHT22;8241;48.786;9.250;2022-08-19T11:45:39;21.30;99.90
16267;DHT22;8241;48.786;9.250;2022-08-19T11:48:08;21.20;99.90
16267;DHT22;8241;48.786;9.250;2022-08-19T11:50:36;21.30;99.90
16267;DHT22;8241;48.786;9.250;2022-08-19T11:53:06;21.20;99.90
16267;DHT22;8241;48.786;9.250;2022-08-19T11:55:37;21.20;99.90
16267;DHT22;8241;48.786;9.250;2022-08-19T11:58:13;21.20;99.90
16267;DHT22;8241;48.786;9.250;2022-08-19T12:00:41;21.30;99.90
16267;DHT22;8241;48.786;9.250;2022-08-19T12:03:10;21.30;99.90
16267;DHT22;8241;48.786;9.250;2022-08-19T12:05:52;21.30;99.90
16267;DHT22;8241;48.786;9.250;2022-08-19T12:08:22;21.30;99.90
16267;DHT22;8241;48.786;9.250;2022-08-19T12:10:49;21.30;99.90
16267;DHT22;8241;48.786;9.250;2022-08-19T12:13:20;21.40;99.90
16267;DHT22;8241;48.786;9.250;2022-08-19T12:15:47;21.30;99.90
16267;DHT22;8241;48.786;9.250;2022-08-19T12:18:32;21.30;99.90
16267;DHT22;8241;48.786;9.250;2022-08-19T12:21:00;21.20;99.90
16267;DHT22;8241;48.786;9.250;2022-08-19T12:23:28;21.20;99.90
16267;DHT22;8241;48.786;9.250;2022-08-19T12:25:56;21.10;99.90
16267;DHT22;8241;48.786;9.250;2022-08-19T12:28:24;21.00;99.90
16267;DHT22;8241;48.786;9.250;2022-08-19T12:30:51;21.10;99.90
16267;DHT22;8241;48.786;9.250;2022-08-19T12:33:19;21.10;99.90
16267;DHT22;8241;48.786;9.250;2022-08-19T12:35:49;21.10;99.90
16267;DHT22;8241;48.786;9.250;2022-08-19T12:38:18;21.10;99.90
16267;DHT22;8241;48.786;9.250;2022-08-19T12:43:43;21.00;99.90
16267;DHT22;8241;48.786;9.250;2022-08-19T12:46:10;21.00;99.90
16267;DHT22;8241;48.786;9.250;2022-08-19T12:48:52;21.00;99.90
16267;DHT22;8241;48.786;9.250;2022-08-19T12:51:27;21.00;99.90
16267;DHT22;8241;48.786;9.250;2022-08-19T12:53:58;21.10;99.90
16267;DHT22;8241;48.786;9.250;2022-08-19T12:56:25;21.10;99.90
16267;DHT22;8241;48.786;9.250;2022-08-19T12:58:53;21.10;99.90
16267;DHT22;8241;48.786;9.250;2022-08-19T13:01:20;21.20;99.90
16267;DHT22;8241;48.786;9.250;2022-08-19T13:03:47;21.20;99.90
16267;DHT22;8241;48.786;9.250;2022-08-19T13:06:14;21.20;99.90
16267;DHT22;8241;48.786;9.250;2022-08-19T13:08:55;21.30;99.90
16267;DHT22;8241;48.786;9.250;2022-08-19T13:11:23;21.30;99.90
16267;DHT22;8241;48.786;9.250;2022-08-19T13:13:58;21.20;99.90
16267;DHT22;8241;48.786;9.250;2022-08-19T13:16:26;21.10;99.90
16267;DHT22;8241;48.786;9.250;2022-08-19T13:18:54;21.10;99.90
16267;DHT22;8241;48.786;9.250;2022-08-19T13:21:27;21.00;99.90
16267;DHT22;8241;48.786;9.250;2022-08-19T13:23:55;20.90;99.90
16267;DHT22;8241;48.786;9.250;2022-08-19T13:26:46;20.90;99.90
16267;DHT22;8241;48.786;9.250;2022-08-19T13:29:13;20.80;99.90
16267;DHT22;8241;48.786;9.250;2022-08-19T13:32:03;20.70;99.90
16267;DHT22;8241;48.786;9.250;2022-08-19T13:34:47;20.70;99.90
16267;DHT22;8241;48.786;9.250;2022-08-19T13:37:14;20.60;99.90
16267;DHT22;8241;48.786;9.250;2022-08-19T13:39:41;20.60;99.90
16267;DHT22;8241;48.786;9.250;2022-08-19T13:42:09;20.60;99.90
16267;DHT22;8241;48.786;9.250;2022-08-19T13:44:39;20.60;99.90
16267;DHT22;8241;48.786;9.250;2022-08-19T13:47:06;20.50;99.90
16267;DHT22;8241;48.786;9.250;2022-08-19T13:49:34;20.50;99.90
16267;DHT22;8241;48.786;9.250;2022-08-19T13:52:02;20.50;99.90
16267;DHT22;8241;48.786;9.250;2022-08-19T13:54:29;20.40;99.90
16267;DHT22;8241;48.786;9.250;2022-08-19T13:57:00;20.40;99.90
16267;DHT22;8241;48.786;9.250;2022-08-19T13:59:29;20.40;99.90
16267;DHT22;8241;48.786;9.250;2022-08-19T14:01:57;20.50;99.90
16267;DHT22;8241;48.786;9.250;2022-08-19T14:04:24;20.60;99.90
16267;DHT22;8241;48.786;9.250;2022-08-19T14:06:51;20.60;99.90
16267;DHT22;8241;48.786;9.250;2022-08-19T14:09:18;20.50;99.90
16267;DHT22;8241;48.786;9.250;2022-08-19T14:11:50;20.40;99.90
16267;DHT22;8241;48.786;9.250;2022-08-19T14:14:17;20.30;99.90
16267;DHT22;8241;48.786;9.250;2022-08-19T14:16:45;20.20;99.90
16267;DHT22;8241;48.786;9.250;2022-08-19T14:19:22;20.30;99.90
16267;DHT22;8241;48.786;9.250;2022-08-19T14:21:49;20.30;99.90
16267;DHT22;8241;48.786;9.250;2022-08-19T14:24:15;20.30;99.90
16267;DHT22;8241;48.786;9.250;2022-08-19T14:29:37;20.30;99.90
16267;DHT22;8241;48.786;9.250;2022-08-19T14:32:05;20.30;99.90
16267;DHT22;8241;48.786;9.250;2022-08-19T14:34:32;20.30;99.90
16267;DHT22;8241;48.786;9.250;2022-08-19T14:40:12;20.40;99.90
16267;DHT22;8241;48.786;9.250;2022-08-19T14:42:39;20.40;99.90
16267;DHT22;8241;48.786;9.250;2022-08-19T14:45:08;20.50;99.90
16267;DHT22;8241;48.786;9.250;2022-08-19T14:47:37;20.50;99.90
16267;DHT22;8241;48.786;9.250;2022-08-19T14:50:06;20.60;99.90
16267;DHT22;8241;48.786;9.250;2022-08-19T14:52:33;20.70;99.90
16267;DHT22;8241;48.786;9.250;2022-08-19T14:55:00;20.70;99.90
16267;DHT22;8241;48.786;9.250;2022-08-19T14:57:27;20.60;99.90
16267;DHT22;8241;48.786;9.250;2022-08-19T14:59:55;20.60;99.90
16267;DHT22;8241;48.786;9.250;2022-08-19T15:02:22;20.70;99.90
16267;DHT22;8241;48.786;9.250;2022-08-19T15:04:51;20.60;99.90
16267;DHT22;8241;48.786;9.250;2022-08-19T15:07:17;20.80;99.90
16267;DHT22;8241;48.786;9.250;2022-08-19T15:09:44;20.80;99.90
16267;DHT22;8241;48.786;9.250;2022-08-19T15:12:22;20.90;99.90
16267;DHT22;8241;48.786;9.250;2022-08-19T15:14:49;21.10;99.90
16267;DHT22;8241;48.786;9.250;2022-08-19T15:17:17;21.10;99.90
16267;DHT22;8241;48.786;9.250;2022-08-19T15:19:56;21.10;99.90
16267;DHT22;8241;48.786;9.250;2022-08-19T15:22:22;21.20;99.90
16267;DHT22;8241;48.786;9.250;2022-08-19T15:24:49;21.50;99.90
16267;DHT22;8241;48.786;9.250;2022-08-19T15:27:16;21.60;99.90
16267;DHT22;8241;48.786;9.250;2022-08-19T15:29:43;21.60;99.90
16267;DHT22;8241;48.786;9.250;2022-08-19T15:32:14;21.70;99.90
16267;DHT22;8241;48.786;9.250;2022-08-19T15:34:41;21.80;99.90
16267;DHT22;8241;48.786;9.250;2022-08-19T15:37:10;21.80;99.90
16267;DHT22;8241;48.786;9.250;2022-08-19T15:39:36;21.70;99.90
16267;DHT22;8241;48.786;9.250;2022-08-19T15:42:04;21.60;99.90
16267;DHT22;8241;48.786;9.250;2022-08-19T15:44:31;21.50;99.90
16267;DHT22;8241;48.786;9.250;2022-08-19T15:46:58;21.50;99.90
16267;DHT22;8241;48.786;9.250;2022-08-19T15:49:25;21.50;99.90
16267;DHT22;8241;48.786;9.250;2022-08-19T15:51:52;21.50;99.90
16267;DHT22;8241;48.786;9.250;2022-08-19T15:54:50;21.50;99.90
16267;DHT22;8241;48.786;9.250;2022-08-19T15:57:17;21.60;99.90
16267;DHT22;8241;48.786;9.250;2022-08-19T16:00:02;21.60;99.90
16267;DHT22;8241;48.786;9.250;2022-08-19T16:02:47;21.60;99.90
16267;DHT22;8241;48.786;9.250;2022-08-19T16:05:32;21.70;99.90
16267;DHT22;8241;48.786;9.250;2022-08-19T16:08:18;21.80;99.90
16267;DHT22;8241;48.786;9.250;2022-08-19T16:11:19;21.70;99.90
16267;DHT22;8241;48.786;9.250;2022-08-19T16:14:04;21.80;99.90
16267;DHT22;8241;48.786;9.250;2022-08-19T16:16:34;21.90;99.90
16267;DHT22;8241;48.786;9.250;2022-08-19T16:19:08;21.80;99.90
16267;DHT22;8241;48.786;9.250;2022-08-19T16:21:36;21.80;99.90
16267;DHT22;8241;48.786;9.250;2022-08-19T16:24:14;21.80;99.90
16267;DHT22;8241;48.786;9.250;2022-08-19T16:26:43;21.80;99.90
16267;DHT22;8241;48.786;9.250;2022-08-19T16:29:11;21.90;99.90
16267;DHT22;8241;48.786;9.250;2022-08-19T16:31:51;22.00;99.90
16267;DHT22;8241;48.786;9.250;2022-08-19T16:34:19;22.00;99.90
16267;DHT22;8241;48.786;9.250;2022-08-19T16:36:46;21.90;99.90
16267;DHT22;8241;48.786;9.250;2022-08-19T16:39:16;21.90;99.90
16267;DHT22;8241;48.786;9.250;2022-08-19T16:41:45;21.80;99.90
16267;DHT22;8241;48.786;9.250;2022-08-19T16:44:14;21.60;99.90
16267;DHT22;8241;48.786;9.250;2022-08-19T16:46:42;21.60;99.90
16267;DHT22;8241;48.786;9.250;2022-08-19T16:49:12;21.50;99.90